Time;durP1;ratioP1;P1;durP2;ratioP2;P2;SDS_P1;SDS_P2;PMS_P1;PMS_P2;Temp;Humidity;BMP_temperature;BMP_pressure;BME280_temperature;BME280_humidity;BME280_pressure;Samples;Min_cycle;Max_cycle;Signal;HPM_P1;HPM_P2
2021/11/20 00:01:17;;;;;;;8.90;5.07;;;11.00;72.00;;;;;;2303473;53;20967;-68
2021/11/20 00:03:45;;;;;;;8.00;5.22;;;10.90;71.90;;;;;;2307608;54;21502;-71
2021/11/20 00:06:13;;;;;;;9.27;5.18;;;10.90;72.10;;;;;;2311831;54;22212;-69
2021/11/20 00:08:40;;;;;;;7.40;4.90;;;10.90;72.10;;;;;;2339228;53;20967;-70
2021/11/20 00:11:08;;;;;;;7.37;4.62;;;10.80;72.10;;;;;;2328356;53;21008;-70
2021/11/20 00:13:37;;;;;;;6.90;4.10;;;10.80;72.10;;;;;;2327756;53;20974;-70
2021/11/20 00:16:06;;;;;;;6.40;3.92;;;10.80;72.10;;;;;;2346683;53;21069;-68
2021/11/20 00:18:34;;;;;;;6.30;3.85;;;10.80;72.20;;;;;;2340334;53;21780;-70
2021/11/20 00:21:04;;;;;;;6.87;3.85;;;10.80;72.30;;;;;;2347697;53;21006;-70
2021/11/20 00:23:43;;;;;;;6.72;4.00;;;10.80;72.40;;;;;;2348357;53;21461;-71
2021/11/20 00:26:11;;;;;;;6.53;3.85;;;10.80;72.30;;;;;;2349971;53;20968;-71
2021/11/20 00:28:53;;;;;;;5.57;3.15;;;10.80;72.50;;;;;;2351352;53;20990;-70
2021/11/20 00:31:21;;;;;;;5.75;2.92;;;10.80;72.50;;;;;;2342981;53;21399;-70
2021/11/20 00:33:47;;;;;;;5.82;3.45;;;10.80;72.60;;;;;;2346145;53;20951;-70
2021/11/20 00:36:16;;;;;;;7.20;4.45;;;10.70;72.60;;;;;;2347817;53;21435;-70
2021/11/20 00:38:45;;;;;;;7.30;4.60;;;10.80;72.80;;;;;;2346942;53;21022;-71
2021/11/20 00:41:15;;;;;;;6.35;3.53;;;10.90;73.00;;;;;;2584103;52;20970;-70
2021/11/20 00:43:42;;;;;;;6.18;3.28;;;10.80;72.90;;;;;;2346217;53;20997;-70
2021/11/20 00:46:09;;;;;;;5.35;2.65;;;10.80;73.10;;;;;;2583702;52;21025;-70
2021/11/20 00:48:35;;;;;;;4.68;2.65;;;10.80;73.10;;;;;;2350789;53;20978;-69
2021/11/20 00:51:06;;;;;;;5.12;2.92;;;10.80;73.10;;;;;;2352789;53;21042;-70
2021/11/20 00:53:34;;;;;;;5.28;3.05;;;10.90;72.90;;;;;;2584879;52;21065;-71
2021/11/20 00:56:00;;;;;;;6.05;3.55;;;10.80;72.80;;;;;;2348133;53;20945;-70
2021/11/20 00:58:27;;;;;;;6.30;3.47;;;10.80;72.40;;;;;;2332063;53;21079;-70
2021/11/20 01:00:55;;;;;;;5.43;3.15;;;10.80;72.40;;;;;;2351503;53;21029;-71
2021/11/20 01:03:22;;;;;;;8.18;4.05;;;10.80;72.20;;;;;;2585384;52;21049;-70
2021/11/20 01:05:50;;;;;;;6.20;3.47;;;10.80;72.20;;;;;;2287469;54;21048;-70
2021/11/20 01:08:20;;;;;;;6.60;3.80;;;10.50;72.00;;;;;;2315501;53;21817;-71
2021/11/20 01:10:49;;;;;;;5.40;3.37;;;10.80;72.30;;;;;;2536718;53;20976;-69
2021/11/20 01:13:15;;;;;;;5.57;3.12;;;10.70;72.20;;;;;;2323493;53;21494;-71
2021/11/20 01:15:50;;;;;;;5.80;3.28;;;10.70;72.30;;;;;;2347578;53;20962;-70
2021/11/20 02:48:42;;;;;;;3.47;1.87;;;10.70;72.20;;;;;;2500702;53;25365;-70
2021/11/20 02:51:11;;;;;;;4.60;2.60;;;10.50;72.90;;;;;;2497025;54;20954;-71
2021/11/20 02:53:45;;;;;;;4.47;2.70;;;10.50;72.90;;;;;;2522544;54;20961;-70
2021/11/20 02:56:15;;;;;;;4.80;3.00;;;10.50;73.10;;;;;;2288742;54;21021;-69
2021/11/20 02:58:41;;;;;;;6.22;3.03;;;10.50;73.00;;;;;;2502894;54;20977;-71
2021/11/20 03:01:17;;;;;;;4.45;2.55;;;10.50;72.90;;;;;;2278083;55;20934;-70
2021/11/20 03:03:44;;;;;;;4.80;2.83;;;10.50;72.70;;;;;;2477255;54;20988;-71
2021/11/20 03:06:14;;;;;;;4.53;2.72;;;10.50;72.70;;;;;;2260185;55;20937;-69
2021/11/20 03:08:44;;;;;;;3.78;2.50;;;10.50;72.50;;;;;;2494677;54;20994;-71
2021/11/20 03:11:13;;;;;;;3.75;2.10;;;10.50;72.40;;;;;;2280378;55;20970;-71
2021/11/20 03:13:41;;;;;;;4.00;2.20;;;10.50;72.40;;;;;;2510062;54;21857;-70
2021/11/20 03:16:08;;;;;;;4.20;2.08;;;10.40;72.20;;;;;;2283845;54;21798;-70
2021/11/20 03:18:34;;;;;;;3.70;1.98;;;10.40;72.20;;;;;;2493981;54;21518;-69
2021/11/20 03:21:01;;;;;;;3.78;2.20;;;10.40;72.10;;;;;;2492149;54;21395;-71
2021/11/20 03:23:36;;;;;;;4.60;2.35;;;10.40;72.10;;;;;;2246296;54;21425;-70
2021/11/20 03:26:05;;;;;;;4.60;2.58;;;10.50;72.10;;;;;;2282103;54;21023;-70
2021/11/20 03:28:32;;;;;;;4.05;2.40;;;10.40;72.00;;;;;;2513027;54;20924;-68
2021/11/20 03:30:58;;;;;;;3.67;1.85;;;10.30;71.90;;;;;;2489138;54;21078;-71
2021/11/20 03:33:25;;;;;;;4.50;2.62;;;10.30;71.90;;;;;;2544750;54;21069;-71
2021/11/20 03:35:52;;;;;;;5.90;2.55;;;10.30;71.90;;;;;;2552196;53;20985;-69
2021/11/20 03:38:19;;;;;;;4.95;2.60;;;10.30;71.90;;;;;;2554137;54;20942;-71
2021/11/20 03:40:46;;;;;;;5.90;3.75;;;10.30;71.90;;;;;;2314320;54;21440;-70
2021/11/20 03:43:13;;;;;;;4.43;2.40;;;10.20;71.70;;;;;;2545999;54;21458;-70
2021/11/20 03:45:40;;;;;;;3.87;2.42;;;10.20;71.70;;;;;;2256810;55;20977;-69
2021/11/20 03:48:06;;;;;;;4.37;2.45;;;10.20;71.70;;;;;;2516786;54;20962;-71
2021/11/20 03:50:33;;;;;;;4.22;2.40;;;10.20;71.70;;;;;;2523707;54;20920;-70
2021/11/20 03:52:59;;;;;;;4.28;2.33;;;10.20;71.70;;;;;;2530848;54;20982;-69
2021/11/20 03:55:29;;;;;;;4.12;2.28;;;10.30;71.90;;;;;;2284044;55;20994;-71
2021/11/20 03:57:55;;;;;;;4.20;2.42;;;10.10;71.60;;;;;;2516194;54;20927;-70
2021/11/20 04:00:23;;;;;;;3.80;1.95;;;10.10;71.70;;;;;;2285189;55;20936;-70
2021/11/20 04:02:49;;;;;;;3.35;1.90;;;10.10;71.60;;;;;;2287323;55;20964;-70
2021/11/20 04:05:18;;;;;;;3.37;1.80;;;10.10;71.70;;;;;;2284450;55;21044;-71
2021/11/20 04:07:46;;;;;;;3.50;2.12;;;10.10;71.80;;;;;;2520972;54;20924;-69
2021/11/20 04:10:13;;;;;;;3.40;1.77;;;10.00;71.80;;;;;;2286204;55;20996;-70
2021/11/20 04:12:40;;;;;;;3.60;1.98;;;10.00;71.90;;;;;;2511785;55;20930;-71
2021/11/20 04:15:08;;;;;;;3.87;2.08;;;10.00;72.00;;;;;;2300875;55;20981;-70
2021/11/20 04:17:34;;;;;;;4.40;2.22;;;10.00;72.00;;;;;;2518175;54;21033;-70
2021/11/20 04:20:03;;;;;;;3.45;1.83;;;10.00;72.00;;;;;;2513246;54;21053;-70
2021/11/20 04:22:30;;;;;;;3.50;1.85;;;10.00;72.10;;;;;;2462077;55;20941;-71
2021/11/20 04:24:57;;;;;;;3.90;2.00;;;10.00;72.10;;;;;;2481989;55;21019;-70
2021/11/20 04:27:23;;;;;;;4.20;2.35;;;10.10;72.20;;;;;;2503758;54;20952;-70
2021/11/20 04:29:50;;;;;;;3.50;1.85;;;10.00;72.20;;;;;;2251911;55;20972;-69
2021/11/20 04:32:16;;;;;;;3.05;1.55;;;10.00;72.20;;;;;;2288093;54;20983;-70
2021/11/20 04:34:43;;;;;;;3.50;1.85;;;10.00;72.20;;;;;;2293771;55;21062;-70
2021/11/20 04:37:09;;;;;;;3.75;1.92;;;10.10;72.30;;;;;;2514513;54;20947;-71
2021/11/20 04:39:38;;;;;;;3.28;1.60;;;10.10;72.40;;;;;;2288155;54;21015;-70
2021/11/20 04:42:05;;;;;;;3.30;1.60;;;10.10;72.40;;;;;;2522406;54;21063;-70
2021/11/20 04:44:32;;;;;;;4.57;1.65;;;10.10;72.40;;;;;;2535967;54;21434;-71
2021/11/20 04:46:58;;;;;;;3.12;1.70;;;10.10;72.50;;;;;;2548217;54;21769;-69
2021/11/20 04:49:24;;;;;;;3.35;1.90;;;10.10;72.50;;;;;;2299458;54;21384;-70
2021/11/20 04:51:51;;;;;;;3.45;1.70;;;10.10;72.50;;;;;;2546841;54;21005;-70
2021/11/20 04:54:23;;;;;;;4.03;2.20;;;10.10;72.50;;;;;;2547288;54;20981;-70
2021/11/20 04:56:52;;;;;;;3.37;1.83;;;10.10;72.40;;;;;;2547649;54;20928;-71
2021/11/20 04:59:19;;;;;;;2.78;1.60;;;10.10;72.20;;;;;;2547914;54;21048;-71
2021/11/20 05:01:47;;;;;;;4.12;1.90;;;10.10;72.30;;;;;;2291073;54;20915;-69
2021/11/20 05:04:14;;;;;;;3.40;1.70;;;10.10;72.20;;;;;;2313726;54;20937;-71
2021/11/20 05:06:41;;;;;;;3.70;2.00;;;10.10;72.30;;;;;;2288120;54;21011;-71
2021/11/20 05:09:11;;;;;;;3.72;1.80;;;10.10;72.20;;;;;;2312967;54;21018;-69
2021/11/20 05:11:38;;;;;;;3.45;1.85;;;10.10;72.30;;;;;;2542753;54;21422;-70
2021/11/20 05:14:06;;;;;;;3.75;1.65;;;10.10;72.30;;;;;;2529009;54;21855;-71
2021/11/20 05:16:33;;;;;;;3.62;2.03;;;10.10;72.40;;;;;;2289251;55;21051;-71
2021/11/20 05:18:59;;;;;;;4.57;1.73;;;10.10;72.50;;;;;;2548793;54;20999;-70
2021/11/20 05:21:26;;;;;;;3.03;1.62;;;10.20;72.60;;;;;;2309598;54;20978;-69
2021/11/20 05:23:52;;;;;;;3.05;1.48;;;10.20;72.60;;;;;;2317048;54;21516;-71
2021/11/20 05:26:19;;;;;;;3.12;1.52;;;10.20;72.50;;;;;;2552300;54;21060;-70
2021/11/20 05:28:52;;;;;;;2.80;1.35;;;10.20;72.50;;;;;;2541685;54;20937;-71
2021/11/20 05:31:19;;;;;;;3.12;1.58;;;10.20;72.40;;;;;;2311241;54;21226;-71
2021/11/20 05:33:50;;;;;;;3.62;1.73;;;10.20;72.30;;;;;;2541176;54;20927;-71
2021/11/20 05:36:17;;;;;;;3.40;1.80;;;10.20;72.10;;;;;;2313143;54;20977;-70
2021/11/20 05:38:47;;;;;;;3.50;1.65;;;10.20;72.10;;;;;;2311905;54;21384;-70
2021/11/20 05:41:13;;;;;;;2.85;1.37;;;10.20;72.00;;;;;;2550760;54;21454;-70
2021/11/20 05:43:40;;;;;;;3.55;1.60;;;10.10;71.90;;;;;;2311821;54;21015;-68
2021/11/20 05:46:12;;;;;;;3.22;1.70;;;10.10;71.90;;;;;;2549676;54;20927;-70
2021/11/20 05:48:39;;;;;;;2.55;1.27;;;10.10;71.90;;;;;;2553589;54;21740;-70
2021/11/20 05:51:05;;;;;;;4.07;1.90;;;10.10;72.00;;;;;;2528572;54;20993;-69
2021/11/20 05:53:32;;;;;;;3.30;1.52;;;10.20;72.20;;;;;;2321124;54;20942;-70
2021/11/20 05:55:58;;;;;;;3.15;1.52;;;10.10;72.00;;;;;;2552520;54;21794;-70
2021/11/20 05:58:28;;;;;;;3.42;1.52;;;10.10;72.10;;;;;;2309560;54;20951;-69
2021/11/20 06:01:02;;;;;;;3.53;1.83;;;10.10;72.20;;;;;;2549287;54;21404;-70
2021/11/20 06:03:32;;;;;;;3.42;1.70;;;10.10;72.00;;;;;;2552833;54;21057;-70
2021/11/20 06:05:58;;;;;;;3.40;1.70;;;10.10;72.10;;;;;;2533111;54;21507;-70
2021/11/20 06:08:25;;;;;;;3.33;1.70;;;10.10;72.00;;;;;;2314865;54;21021;-71
2021/11/20 06:10:53;;;;;;;3.75;1.80;;;10.10;71.90;;;;;;2533501;54;20971;-70
2021/11/20 06:13:20;;;;;;;3.55;2.00;;;10.10;71.90;;;;;;2306166;54;20967;-70
2021/11/20 06:15:47;;;;;;;4.03;2.35;;;10.10;71.90;;;;;;2310085;54;20963;-69
2021/11/20 06:18:22;;;;;;;3.42;1.87;;;10.10;71.90;;;;;;2549922;54;20981;-70
2021/11/20 06:20:48;;;;;;;4.18;2.30;;;10.10;71.60;;;;;;2302578;54;20955;-71
2021/11/20 06:23:26;;;;;;;4.43;2.45;;;10.10;71.90;;;;;;2547701;54;20987;-70
2021/11/20 06:25:52;;;;;;;4.68;2.53;;;10.10;71.80;;;;;;2551359;54;20993;-70
2021/11/20 06:28:19;;;;;;;4.75;2.70;;;10.00;71.70;;;;;;2313339;54;21854;-70
2021/11/20 06:30:46;;;;;;;4.57;2.30;;;10.20;71.90;;;;;;2549636;53;20955;-71
2021/11/20 06:33:18;;;;;;;3.58;2.03;;;10.00;71.80;;;;;;2294484;55;20995;-71
2021/11/20 06:35:56;;;;;;;5.03;2.08;;;10.00;71.60;;;;;;2294155;55;21038;-71
2021/11/20 06:39:09;;;;;;;4.50;2.50;;;10.00;71.60;;;;;;2553717;54;21052;-70
2021/11/20 06:41:35;;;;;;;4.60;2.45;;;10.00;71.80;;;;;;2542414;53;22015;-69
2021/11/20 06:44:02;;;;;;;3.90;2.22;;;10.00;71.90;;;;;;2319004;54;20929;-70
2021/11/20 06:46:28;;;;;;;4.43;2.22;;;10.00;71.90;;;;;;2313296;54;21842;-70
2021/11/20 06:52:23;;;;;;;4.45;1.95;;;10.00;71.50;;;;;;2553272;54;20969;-70
2021/11/20 06:54:49;;;;;;;5.75;2.33;;;10.00;71.90;;;;;;2301252;54;21077;-68
2021/11/20 06:57:26;;;;;;;5.22;2.20;;;9.90;72.80;;;;;;2309724;54;20967;-71
2021/11/20 07:02:37;;;;;;;3.17;1.73;;;10.00;71.70;;;;;;2544734;54;22290;-70
2021/11/20 07:05:05;;;;;;;4.00;2.28;;;9.90;72.60;;;;;;2551114;54;20949;-69
2021/11/20 07:07:34;;;;;;;3.60;1.77;;;9.90;72.50;;;;;;2549364;54;20939;-69
2021/11/20 07:10:01;;;;;;;3.40;1.80;;;9.90;72.50;;;;;;2548979;54;20995;-70
2021/11/20 07:12:27;;;;;;;3.83;2.00;;;9.90;72.50;;;;;;2313938;54;21077;-71
2021/11/20 07:14:54;;;;;;;3.58;1.90;;;9.90;72.50;;;;;;2315346;54;21057;-70
2021/11/20 07:17:21;;;;;;;4.07;2.00;;;9.80;72.30;;;;;;2311539;54;20947;-70
2021/11/20 07:19:48;;;;;;;3.75;1.92;;;9.80;72.30;;;;;;2293889;55;21503;-70
2021/11/20 07:22:16;;;;;;;3.65;1.80;;;9.80;72.30;;;;;;2319673;54;21024;-70
2021/11/20 07:25:28;;;;;;;3.28;1.60;;;9.80;72.20;;;;;;2307118;54;20983;-70
2021/11/20 07:28:03;;;;;;;3.22;1.77;;;9.80;71.80;;;;;;2551961;54;20961;-69
2021/11/20 07:30:31;;;;;;;2.75;1.40;;;9.70;71.90;;;;;;2300363;54;20975;-70
2021/11/20 07:32:57;;;;;;;2.78;1.50;;;9.70;72.10;;;;;;2309257;54;21464;-70
2021/11/20 07:35:33;;;;;;;2.85;1.55;;;9.70;72.20;;;;;;2304522;54;21084;-69
2021/11/20 07:38:03;;;;;;;3.00;1.50;;;9.70;72.20;;;;;;2314729;54;20975;-71
2021/11/20 07:40:56;;;;;;;2.83;1.23;;;9.60;72.30;;;;;;2310976;54;21130;-71
2021/11/20 07:43:25;;;;;;;4.32;1.58;;;9.60;72.00;;;;;;2494006;55;21040;-70
2021/11/20 07:45:54;;;;;;;2.78;1.35;;;9.60;72.50;;;;;;2273155;55;20952;-69
2021/11/20 07:48:23;;;;;;;2.95;1.42;;;9.60;72.70;;;;;;2291835;55;20965;-69
2021/11/20 07:50:49;;;;;;;3.70;2.33;;;9.60;72.90;;;;;;2286802;54;20995;-70
2021/11/20 07:53:17;;;;;;;3.62;1.52;;;9.60;73.10;;;;;;2548693;54;20971;-70
2021/11/20 07:55:45;;;;;;;3.58;1.60;;;9.60;73.20;;;;;;2522388;54;21449;-70
2021/11/20 07:58:11;;;;;;;3.60;1.67;;;9.60;73.30;;;;;;2287338;54;21035;-69
2021/11/20 08:00:38;;;;;;;3.30;1.33;;;9.70;73.50;;;;;;2302940;54;22004;-70
2021/11/20 08:03:05;;;;;;;3.12;1.37;;;9.70;73.50;;;;;;2296897;54;20992;-69
2021/11/20 08:05:32;;;;;;;3.47;1.73;;;9.70;73.50;;;;;;2308679;54;21526;-69
2021/11/20 08:07:59;;;;;;;3.70;1.73;;;9.70;73.50;;;;;;2527216;54;21861;-71
2021/11/20 08:10:26;;;;;;;3.12;1.62;;;9.70;73.50;;;;;;2522733;54;20946;-70
2021/11/20 08:12:53;;;;;;;3.08;1.75;;;9.80;73.60;;;;;;2523868;54;21786;-71
2021/11/20 08:15:22;;;;;;;3.62;1.75;;;9.80;73.70;;;;;;2317206;54;20985;-71
2021/11/20 08:17:49;;;;;;;3.75;1.90;;;9.80;73.80;;;;;;2532869;54;21997;-71
2021/11/20 08:20:17;;;;;;;3.53;1.67;;;9.90;74.00;;;;;;2305460;54;20969;-70
2021/11/20 08:22:43;;;;;;;4.30;1.77;;;9.90;74.00;;;;;;2523369;54;22149;-71
2021/11/20 08:25:12;;;;;;;3.20;1.90;;;9.90;74.00;;;;;;2315099;54;20941;-69
2021/11/20 08:27:38;;;;;;;4.12;1.65;;;10.00;72.90;;;;;;2531931;54;21307;-71
2021/11/20 08:30:06;;;;;;;3.75;1.83;;;10.00;73.00;;;;;;2306055;54;21472;-70
2021/11/20 08:32:33;;;;;;;4.18;1.77;;;10.00;73.20;;;;;;2290884;55;20979;-70
2021/11/20 08:35:03;;;;;;;3.55;1.62;;;10.10;73.40;;;;;;2303614;55;21896;-71
2021/11/20 08:37:33;;;;;;;3.92;1.90;;;10.20;73.50;;;;;;2537176;54;20996;-70
2021/11/20 08:40:00;;;;;;;3.17;1.55;;;10.20;73.50;;;;;;2548427;54;20951;-70
2021/11/20 08:42:30;;;;;;;3.10;1.40;;;10.20;73.50;;;;;;2552098;54;20989;-70
2021/11/20 08:44:57;;;;;;;3.60;2.10;;;10.30;73.60;;;;;;2312775;54;21036;-71
2021/11/20 08:47:28;;;;;;;4.68;2.03;;;10.40;73.90;;;;;;2549285;54;21029;-71
2021/11/20 08:49:54;;;;;;;3.72;1.98;;;10.40;73.90;;;;;;2313479;54;20968;-70
2021/11/20 08:52:21;;;;;;;3.60;1.90;;;10.50;74.00;;;;;;2552984;54;20985;-70
2021/11/20 08:54:48;;;;;;;3.35;1.87;;;10.50;73.80;;;;;;2311896;54;21076;-71
2021/11/20 08:57:14;;;;;;;2.80;1.50;;;10.60;73.80;;;;;;2543563;54;21004;-71
2021/11/20 08:59:43;;;;;;;3.17;1.50;;;10.70;73.80;;;;;;2295649;55;21083;-71
2021/11/20 09:02:34;;;;;;;3.40;1.73;;;10.70;73.90;;;;;;2555205;54;20979;-70
2021/11/20 09:06:17;;;;;;;3.35;1.80;;;10.80;73.50;;;;;;2321854;54;21374;-71
2021/11/20 09:09:56;;;;;;;3.90;1.73;;;10.80;73.40;;;;;;2311153;54;21856;-71
2021/11/20 09:12:45;;;;;;;2.65;1.30;;;10.90;73.70;;;;;;2310862;54;21003;-70
2021/11/20 09:15:44;;;;;;;3.65;1.90;;;11.00;73.50;;;;;;2311168;54;20927;-71
2021/11/20 09:18:11;;;;;;;3.97;2.20;;;11.10;73.00;;;;;;2550148;54;20931;-70
2021/11/20 09:20:38;;;;;;;3.20;1.90;;;11.10;73.70;;;;;;2550625;54;21003;-71
2021/11/20 09:23:05;;;;;;;3.72;2.28;;;11.20;73.70;;;;;;2551039;54;21935;-71
2021/11/20 09:25:31;;;;;;;3.92;2.40;;;11.20;73.60;;;;;;2552557;54;21076;-72
2021/11/20 09:28:38;;;;;;;4.65;2.37;;;11.20;73.30;;;;;;2312009;54;20939;-71
2021/11/20 09:31:06;;;;;;;3.78;1.73;;;11.30;72.80;;;;;;2554481;54;20937;-71
2021/11/20 09:33:35;;;;;;;4.60;2.50;;;11.20;72.70;;;;;;2312440;54;21788;-71
2021/11/20 09:36:02;;;;;;;4.15;2.60;;;11.30;72.90;;;;;;2550813;54;21048;-70
2021/11/20 09:38:28;;;;;;;3.28;1.70;;;11.30;72.70;;;;;;2311104;54;20951;-69
2021/11/20 09:41:00;;;;;;;3.92;1.85;;;11.40;72.80;;;;;;2548097;54;21033;-71
2021/11/20 09:43:29;;;;;;;4.28;2.00;;;11.30;72.50;;;;;;2317304;54;20983;-72
2021/11/20 09:46:23;;;;;;;4.87;2.50;;;11.30;72.50;;;;;;2313566;54;20931;-70
2021/11/20 09:49:18;;;;;;;3.50;2.10;;;11.30;71.70;;;;;;2299266;55;20948;-71
2021/11/20 09:51:47;;;;;;;4.72;2.50;;;11.30;72.20;;;;;;2551129;54;21479;-71
2021/11/20 09:54:15;;;;;;;4.50;2.60;;;11.30;72.40;;;;;;2553916;54;20927;-70
2021/11/20 09:57:20;;;;;;;4.10;2.45;;;11.30;72.40;;;;;;2554074;54;20993;-70
2021/11/20 09:59:52;;;;;;;5.72;3.12;;;11.30;71.40;;;;;;2316998;54;20945;-71
2021/11/20 10:02:24;;;;;;;;;;;11.30;72.10;;;;;;2531772;54;20963;-70
2021/11/20 10:05:39;;;;;;;4.90;2.03;;;11.30;70.90;;;;;;2278967;55;20080;-70
2021/11/20 10:08:10;;;;;;;3.92;2.30;;;11.30;71.00;;;;;;2514478;54;21102;-70
2021/11/20 10:10:40;;;;;;;;;;;11.30;72.00;;;;;;2281545;55;20937;-71
2021/11/20 10:13:18;;;;;;;3.92;2.22;;;11.30;71.30;;;;;;2294567;55;20129;-71
2021/11/20 10:15:59;;;;;;;4.62;2.58;;;11.30;72.00;;;;;;2544408;54;21508;-71
2021/11/20 10:18:38;;;;;;;4.70;2.47;;;11.30;71.70;;;;;;2292300;55;21750;-69
2021/11/20 10:21:35;;;;;;;5.57;3.40;;;11.20;71.80;;;;;;2316368;54;20948;-71
2021/11/20 10:25:44;;;;;;;5.05;3.30;;;11.00;71.40;;;;;;2553929;54;21029;-71
2021/11/20 10:29:00;;;;;;;5.28;3.00;;;11.20;71.50;;;;;;2310366;54;20954;-71
2021/11/20 10:31:38;;;;;;;4.70;2.95;;;11.20;71.10;;;;;;2295646;55;21532;-72
2021/11/20 10:34:26;;;;;;;5.75;3.37;;;11.20;71.50;;;;;;2318055;54;20992;-70
2021/11/20 10:37:13;;;;;;;4.80;2.85;;;11.20;71.10;;;;;;2315360;54;21013;-71
2021/11/20 10:39:43;;;;;;;5.45;3.30;;;11.20;71.20;;;;;;2313353;54;21026;-71
2021/11/20 10:42:19;;;;;;;5.68;3.60;;;11.20;71.70;;;;;;2311537;54;20959;-70
2021/11/20 10:45:10;;;;;;;7.32;2.92;;;11.10;71.40;;;;;;2311387;54;21002;-71
2021/11/20 10:47:51;;;;;;;5.70;3.80;;;11.10;71.20;;;;;;2316073;54;20968;-70
2021/11/20 10:52:28;;;;;;;6.93;4.65;;;11.10;71.60;;;;;;2312121;54;21753;-71
2021/11/20 10:58:44;;;;;;;4.93;2.83;;;11.10;71.90;;;;;;2314108;54;20955;-71
2021/11/20 11:04:06;;;;;;;4.05;2.47;;;11.20;71.00;;;;;;2317921;54;20961;-71
2021/11/20 11:07:05;;;;;;;4.43;2.50;;;11.20;71.50;;;;;;2295611;55;21054;-71
2021/11/20 11:09:49;;;;;;;3.95;2.30;;;11.20;71.50;;;;;;2311448;54;20991;-72
2021/11/20 11:12:33;;;;;;;4.18;2.60;;;11.20;71.60;;;;;;2310363;54;21479;-71
2021/11/20 11:15:13;;;;;;;4.68;2.90;;;11.20;71.60;;;;;;2310210;54;21462;-70
2021/11/20 11:24:47;;;;;;;5.10;3.33;;;11.20;71.60;;;;;;2312691;54;20975;-71
2021/11/20 11:27:17;;;;;;;4.20;2.15;;;11.20;71.50;;;;;;2309805;58;21097;-69
2021/11/20 11:43:20;;;;;;;4.32;2.67;;;11.20;71.90;;;;;;2309270;54;21754;-72
2021/11/20 11:46:30;;;;;;;4.37;2.33;;;11.30;71.20;;;;;;2315829;53;25576;-69
2021/11/20 11:55:27;;;;;;;12.20;5.18;;;11.30;71.70;;;;;;2580038;53;21137;-72
2021/11/20 12:00:44;;;;;;;7.35;3.95;;;11.20;71.60;;;;;;2576799;53;20939;-72
2021/11/20 12:03:29;;;;;;;11.30;5.32;;;11.30;71.20;;;;;;2578890;53;20976;-70
2021/11/20 12:10:54;;;;;;;7.22;4.72;;;11.30;71.80;;;;;;2597841;53;21859;-71
2021/11/20 12:13:42;;;;;;;5.82;3.62;;;11.20;71.00;;;;;;2357271;53;21790;-71
2021/11/20 12:16:30;;;;;;;6.95;3.50;;;11.30;72.10;;;;;;2539787;53;20930;-71
2021/11/20 12:19:18;;;;;;;5.53;3.28;;;11.20;71.50;;;;;;2329564;53;20945;-71
2021/11/20 12:21:59;;;;;;;5.65;3.90;;;11.20;71.70;;;;;;2329615;53;21092;-70
2021/11/20 12:24:51;;;;;;;7.87;4.30;;;11.20;71.80;;;;;;2330157;53;20936;-70
2021/11/20 12:27:40;;;;;;;5.47;3.57;;;11.20;71.20;;;;;;2322173;53;20945;-72
2021/11/20 12:30:32;;;;;;;5.68;2.95;;;11.20;71.30;;;;;;2572061;53;21169;-69
2021/11/20 12:33:35;;;;;;;4.37;2.77;;;11.20;71.30;;;;;;2572439;53;20941;-70
2021/11/20 12:36:36;;;;;;;5.30;3.22;;;11.20;71.40;;;;;;2330398;53;20949;-71
2021/11/20 12:45:11;;;;;;;5.43;3.22;;;11.20;71.20;;;;;;2332556;53;21097;-70
2021/11/20 12:48:05;;;;;;;4.62;2.70;;;11.20;70.80;;;;;;2304791;54;21053;-70
2021/11/20 12:53:11;;;;;;;4.53;2.53;;;11.20;71.50;;;;;;2305649;54;20980;-70
2021/11/20 12:56:23;;;;;;;4.57;2.90;;;11.20;71.60;;;;;;2304355;54;20977;-70
2021/11/20 12:58:55;;;;;;;4.90;2.85;;;11.20;71.50;;;;;;2284656;53;21546;-72
2021/11/20 13:01:44;;;;;;;4.65;2.75;;;11.10;71.60;;;;;;2313073;53;21497;-70
2021/11/20 13:04:24;;;;;;;5.65;3.53;;;11.10;71.50;;;;;;2302335;54;21902;-70
2021/11/20 13:07:00;;;;;;;5.43;3.20;;;11.10;71.80;;;;;;2322412;54;21044;-71
2021/11/20 13:09:37;;;;;;;6.40;4.12;;;11.10;71.70;;;;;;2311402;54;21043;-70
2021/11/20 13:12:32;;;;;;;5.20;3.53;;;11.10;71.70;;;;;;2538807;53;21006;-70
2021/11/20 13:16:39;;;;;;;4.70;3.20;;;11.10;71.40;;;;;;2300722;55;21843;-70
2021/11/20 13:19:19;;;;;;;4.30;2.83;;;11.10;71.30;;;;;;2304405;55;21335;-70
2021/11/20 13:22:13;;;;;;;5.72;3.65;;;11.10;71.80;;;;;;2307515;54;21071;-70
2021/11/20 13:24:49;;;;;;;6.07;3.65;;;11.10;71.20;;;;;;2592771;52;21316;-71
2021/11/20 13:28:02;;;;;;;6.28;3.70;;;11.10;71.50;;;;;;2328303;54;20969;-71
2021/11/20 13:30:32;;;;;;;5.97;3.65;;;11.10;70.90;;;;;;2334240;54;21027;-71
2021/11/20 13:33:00;;;;;;;5.20;3.50;;;11.10;71.90;;;;;;2321565;54;20997;-70
2021/11/20 13:35:40;;;;;;;5.62;3.42;;;11.10;71.90;;;;;;2585678;53;21084;-71
2021/11/20 13:38:10;;;;;;;5.20;3.30;;;11.10;71.80;;;;;;2590586;53;20960;-70
2021/11/20 13:40:46;;;;;;;6.97;3.35;;;11.10;71.80;;;;;;2346470;53;21467;-71
2021/11/20 13:43:23;;;;;;;5.78;3.35;;;11.10;71.50;;;;;;2339280;53;20980;-70
2021/11/20 13:46:54;;;;;;;5.40;3.50;;;11.10;71.40;;;;;;2602792;52;20967;-70
2021/11/20 13:49:21;;;;;;;5.40;3.28;;;11.10;71.50;;;;;;2369117;53;21007;-70
2021/11/20 13:51:49;;;;;;;5.37;3.17;;;11.00;71.40;;;;;;2333354;54;20970;-69
2021/11/20 13:54:16;;;;;;;7.20;4.60;;;11.00;71.40;;;;;;2614212;52;20969;-70
2021/11/20 13:56:46;;;;;;;6.95;4.40;;;11.00;71.30;;;;;;2621164;52;20929;-71
2021/11/20 13:59:17;;;;;;;6.32;4.03;;;11.00;71.30;;;;;;2371195;53;21782;-71
2021/11/20 14:01:50;;;;;;;7.50;4.40;;;11.00;71.30;;;;;;2370973;53;20989;-69
2021/11/20 14:04:18;;;;;;;7.60;4.70;;;10.90;71.20;;;;;;2370197;53;20936;-70
2021/11/20 14:06:45;;;;;;;7.47;4.65;;;10.90;71.20;;;;;;2622862;52;21002;-71
2021/11/20 14:09:16;;;;;;;7.32;5.18;;;10.90;71.20;;;;;;2593299;52;21015;-70
2021/11/20 14:12:01;;;;;;;5.93;3.90;;;10.90;71.20;;;;;;2345085;54;21056;-71
2021/11/20 14:14:28;;;;;;;6.90;4.50;;;10.90;71.10;;;;;;2620831;52;20927;-70
2021/11/20 14:16:54;;;;;;;7.07;4.20;;;10.90;71.30;;;;;;2360461;53;20951;-70
2021/11/20 14:19:28;;;;;;;6.43;3.72;;;10.80;71.30;;;;;;2356477;53;20950;-70
2021/11/20 14:21:59;;;;;;;6.32;3.97;;;10.80;71.10;;;;;;2374384;53;21721;-72
2021/11/20 14:24:26;;;;;;;6.07;3.90;;;10.80;71.30;;;;;;2375852;53;20953;-71
2021/11/20 14:26:58;;;;;;;7.97;4.75;;;10.80;71.50;;;;;;2343199;54;21033;-69
2021/11/20 14:29:35;;;;;;;7.57;4.60;;;10.80;71.50;;;;;;2371540;53;20960;-71
2021/11/20 14:32:06;;;;;;;7.97;4.62;;;10.80;71.20;;;;;;2347005;53;20969;-71
2021/11/20 14:34:34;;;;;;;8.13;4.37;;;10.80;71.40;;;;;;2605344;52;20946;-70
2021/11/20 14:37:16;;;;;;;6.37;4.00;;;10.70;71.40;;;;;;2361186;53;21027;-69
2021/11/20 14:40:06;;;;;;;6.30;4.18;;;10.70;71.90;;;;;;2360731;53;20942;-72
2021/11/20 14:42:34;;;;;;;7.37;4.43;;;10.70;71.00;;;;;;2371008;53;20954;-70
2021/11/20 14:45:19;;;;;;;8.33;4.73;;;10.70;71.40;;;;;;2624086;52;20950;-71
2021/11/20 14:47:51;;;;;;;7.83;4.97;;;10.70;71.10;;;;;;2370742;53;20961;-69
2021/11/20 14:50:34;;;;;;;7.93;5.20;;;10.70;71.20;;;;;;2623409;52;21033;-71
2021/11/20 14:53:07;;;;;;;8.52;5.53;;;10.70;70.70;;;;;;2339211;54;21046;-71
2021/11/20 14:55:42;;;;;;;8.55;5.80;;;10.70;70.80;;;;;;2330411;54;20938;-71
2021/11/20 14:58:10;;;;;;;7.97;5.32;;;10.60;70.40;;;;;;2371633;55;21657;-69
2021/11/20 15:00:37;;;;;;;7.32;4.68;;;10.50;70.50;;;;;;2370706;53;20986;-71
2021/11/20 15:03:04;;;;;;;8.60;5.10;;;10.50;70.70;;;;;;2614521;52;20937;-71
2021/11/20 15:05:30;;;;;;;7.97;4.62;;;10.50;70.80;;;;;;2341907;53;20944;-71
2021/11/20 15:07:56;;;;;;;6.70;4.43;;;10.50;71.00;;;;;;2354605;53;22103;-71
2021/11/20 15:10:23;;;;;;;7.78;4.78;;;10.40;71.10;;;;;;2333949;54;20977;-71
2021/11/20 15:12:49;;;;;;;8.52;5.22;;;10.40;71.30;;;;;;2324710;54;20901;-70
2021/11/20 15:15:16;;;;;;;7.40;4.78;;;10.40;71.30;;;;;;2606949;52;20958;-71
2021/11/20 15:17:42;;;;;;;8.25;5.40;;;10.40;71.20;;;;;;2592536;52;21005;-71
2021/11/20 15:23:49;;;;;;;9.65;6.50;;;10.40;70.60;;;;;;2604516;52;21920;-70
2021/11/20 15:26:58;;;;;;;10.27;6.68;;;10.30;70.70;;;;;;2360809;54;20934;-70
2021/11/20 15:29:26;;;;;;;7.55;5.25;;;10.30;70.20;;;;;;2371602;53;20965;-70
2021/11/20 15:31:54;;;;;;;7.68;4.97;;;10.20;70.60;;;;;;2573120;52;20937;-70
2021/11/20 15:37:48;;;;;;;8.05;5.00;;;10.20;70.80;;;;;;2624370;52;20938;-70
2021/11/20 15:40:15;;;;;;;10.20;6.40;;;10.10;71.20;;;;;;2348940;53;20915;-71
2021/11/20 15:42:59;;;;;;;11.00;6.78;;;10.10;71.20;;;;;;2563824;53;20956;-70
2021/11/20 15:49:07;;;;;;;12.65;6.18;;;10.10;70.80;;;;;;2615837;52;20918;-71
2021/11/20 15:51:34;;;;;;;12.98;7.47;;;10.00;71.00;;;;;;2616814;52;20982;-71
2021/11/20 15:54:00;;;;;;;12.30;7.05;;;10.00;70.90;;;;;;2360884;53;20946;-70
2021/11/20 15:56:27;;;;;;;9.82;6.70;;;10.00;70.80;;;;;;2370894;53;20953;-71
2021/11/20 15:58:54;;;;;;;12.10;7.05;;;9.90;72.00;;;;;;2350638;53;21890;-70
2021/11/20 16:01:21;;;;;;;16.02;8.90;;;9.90;72.10;;;;;;2352063;53;20938;-71